sensor_id;sensor_type;location;lat;lon;timestamp;P1;durP1;ratioP1;P2;durP2;ratioP2
48006;SDS011;33771;48.180;11.400;2022-10-24T00:00:00;14.80;;;2.38;;
48006;SDS011;33771;48.180;11.400;2022-10-24T00:02:26;7.95;;;3.10;;
48006;SDS011;33771;48.180;11.400;2022-10-24T00:04:52;7.80;;;2.55;;
48006;SDS011;33771;48.180;11.400;2022-10-24T00:07:17;10.35;;;2.20;;
48006;SDS011;33771;48.180;11.400;2022-10-24T00:09:43;6.78;;;2.17;;
48006;SDS011;33771;48.180;11.400;2022-10-24T00:12:08;9.23;;;2.15;;
48006;SDS011;33771;48.180;11.400;2022-10-24T00:14:34;6.95;;;2.20;;
48006;SDS011;33771;48.180;11.400;2022-10-24T00:17:00;7.75;;;2.10;;
48006;SDS011;33771;48.180;11.400;2022-10-24T00:19:26;9.95;;;2.10;;
48006;SDS011;33771;48.180;11.400;2022-10-24T00:21:52;13.50;;;2.17;;
48006;SDS011;33771;48.180;11.400;2022-10-24T00:24:17;8.02;;;1.90;;
48006;SDS011;33771;48.180;11.400;2022-10-24T00:26:43;5.47;;;1.73;;
48006;SDS011;33771;48.180;11.400;2022-10-24T00:29:09;6.30;;;1.80;;
48006;SDS011;33771;48.180;11.400;2022-10-24T00:31:35;5.38;;;2.08;;
48006;SDS011;33771;48.180;11.400;2022-10-24T00:34:01;9.63;;;2.33;;
48006;SDS011;33771;48.180;11.400;2022-10-24T00:36:28;7.93;;;2.13;;
48006;SDS011;33771;48.180;11.400;2022-10-24T00:38:54;7.03;;;1.83;;
48006;SDS011;33771;48.180;11.400;2022-10-24T00:41:21;9.48;;;1.67;;
48006;SDS011;33771;48.180;11.400;2022-10-24T00:43:48;2.90;;;1.48;;
48006;SDS011;33771;48.180;11.400;2022-10-24T00:46:14;8.45;;;1.70;;
48006;SDS011;33771;48.180;11.400;2022-10-24T00:48:49;7.75;;;1.90;;
48006;SDS011;33771;48.180;11.400;2022-10-24T00:53:56;12.90;;;2.15;;
48006;SDS011;33771;48.180;11.400;2022-10-24T00:56:30;10.88;;;2.05;;
48006;SDS011;33771;48.180;11.400;2022-10-24T00:58:58;8.52;;;2.10;;
48006;SDS011;33771;48.180;11.400;2022-10-24T01:01:26;10.07;;;2.30;;
48006;SDS011;33771;48.180;11.400;2022-10-24T01:03:53;7.60;;;2.80;;
48006;SDS011;33771;48.180;11.400;2022-10-24T01:06:26;13.05;;;2.42;;
48006;SDS011;33771;48.180;11.400;2022-10-24T01:09:21;14.07;;;2.58;;
48006;SDS011;33771;48.180;11.400;2022-10-24T01:17:30;7.03;;;2.42;;
48006;SDS011;33771;48.180;11.400;2022-10-24T01:28:56;9.55;;;2.65;;
48006;SDS011;33771;48.180;11.400;2022-10-24T01:31:39;11.35;;;2.70;;
48006;SDS011;33771;48.180;11.400;2022-10-24T01:34:16;11.10;;;2.70;;
48006;SDS011;33771;48.180;11.400;2022-10-24T01:36:52;9.15;;;2.67;;
48006;SDS011;33771;48.180;11.400;2022-10-24T01:39:33;9.85;;;2.40;;
48006;SDS011;33771;48.180;11.400;2022-10-24T01:42:04;9.93;;;2.40;;
48006;SDS011;33771;48.180;11.400;2022-10-24T01:44:34;6.10;;;2.05;;
48006;SDS011;33771;48.180;11.400;2022-10-24T01:47:05;12.65;;;2.90;;
48006;SDS011;33771;48.180;11.400;2022-10-24T01:49:36;9.02;;;2.30;;
48006;SDS011;33771;48.180;11.400;2022-10-24T01:52:05;12.95;;;2.75;;
48006;SDS011;33771;48.180;11.400;2022-10-24T01:54:33;9.20;;;2.17;;
48006;SDS011;33771;48.180;11.400;2022-10-24T01:57:01;7.28;;;2.13;;
48006;SDS011;33771;48.180;11.400;2022-10-24T02:02:02;8.52;;;2.60;;
48006;SDS011;33771;48.180;11.400;2022-10-24T02:04:29;9.93;;;2.30;;
48006;SDS011;33771;48.180;11.400;2022-10-24T02:06:57;7.90;;;2.28;;
48006;SDS011;33771;48.180;11.400;2022-10-24T02:09:26;12.00;;;2.33;;
48006;SDS011;33771;48.180;11.400;2022-10-24T02:11:54;12.40;;;2.58;;
48006;SDS011;33771;48.180;11.400;2022-10-24T02:14:27;7.05;;;2.15;;
48006;SDS011;33771;48.180;11.400;2022-10-24T02:16:57;11.00;;;2.45;;
48006;SDS011;33771;48.180;11.400;2022-10-24T02:19:24;8.10;;;2.03;;
48006;SDS011;33771;48.180;11.400;2022-10-24T02:22:07;12.55;;;2.35;;
48006;SDS011;33771;48.180;11.400;2022-10-24T02:24:44;9.18;;;2.58;;
48006;SDS011;33771;48.180;11.400;2022-10-24T02:27:24;13.52;;;3.15;;
48006;SDS011;33771;48.180;11.400;2022-10-24T02:30:06;9.70;;;2.45;;
48006;SDS011;33771;48.180;11.400;2022-10-24T02:32:36;10.23;;;2.10;;
48006;SDS011;33771;48.180;11.400;2022-10-24T02:35:05;7.78;;;2.65;;
48006;SDS011;33771;48.180;11.400;2022-10-24T02:37:33;6.93;;;2.13;;
48006;SDS011;33771;48.180;11.400;2022-10-24T02:40:04;10.15;;;2.35;;
48006;SDS011;33771;48.180;11.400;2022-10-24T02:42:32;7.10;;;2.08;;
48006;SDS011;33771;48.180;11.400;2022-10-24T02:44:59;6.00;;;1.75;;
48006;SDS011;33771;48.180;11.400;2022-10-24T02:47:26;4.65;;;1.88;;
48006;SDS011;33771;48.180;11.400;2022-10-24T02:49:53;9.43;;;2.00;;
48006;SDS011;33771;48.180;11.400;2022-10-24T02:52:19;5.63;;;2.33;;
48006;SDS011;33771;48.180;11.400;2022-10-24T02:54:45;9.40;;;2.78;;
48006;SDS011;33771;48.180;11.400;2022-10-24T02:57:11;8.80;;;2.40;;
48006;SDS011;33771;48.180;11.400;2022-10-24T02:59:39;9.13;;;2.00;;
48006;SDS011;33771;48.180;11.400;2022-10-24T03:02:04;10.05;;;2.20;;
48006;SDS011;33771;48.180;11.400;2022-10-24T03:04:30;9.52;;;2.58;;
48006;SDS011;33771;48.180;11.400;2022-10-24T03:06:55;8.77;;;2.22;;
48006;SDS011;33771;48.180;11.400;2022-10-24T03:09:21;7.45;;;1.95;;
48006;SDS011;33771;48.180;11.400;2022-10-24T03:11:47;7.50;;;1.95;;
48006;SDS011;33771;48.180;11.400;2022-10-24T03:14:12;8.23;;;2.15;;
48006;SDS011;33771;48.180;11.400;2022-10-24T03:16:38;7.75;;;2.13;;
48006;SDS011;33771;48.180;11.400;2022-10-24T03:19:03;7.25;;;2.30;;
48006;SDS011;33771;48.180;11.400;2022-10-24T03:21:29;10.20;;;2.10;;
48006;SDS011;33771;48.180;11.400;2022-10-24T03:23:54;10.50;;;1.98;;
48006;SDS011;33771;48.180;11.400;2022-10-24T03:26:20;11.52;;;2.25;;
48006;SDS011;33771;48.180;11.400;2022-10-24T03:28:46;9.05;;;2.58;;
48006;SDS011;33771;48.180;11.400;2022-10-24T03:31:11;7.72;;;2.50;;
48006;SDS011;33771;48.180;11.400;2022-10-24T03:33:37;7.47;;;2.00;;
48006;SDS011;33771;48.180;11.400;2022-10-24T03:36:02;7.38;;;2.10;;
48006;SDS011;33771;48.180;11.400;2022-10-24T03:38:29;7.13;;;1.98;;
48006;SDS011;33771;48.180;11.400;2022-10-24T03:40:55;8.35;;;2.40;;
48006;SDS011;33771;48.180;11.400;2022-10-24T03:43:20;17.73;;;2.67;;
48006;SDS011;33771;48.180;11.400;2022-10-24T03:45:46;5.45;;;1.80;;
48006;SDS011;33771;48.180;11.400;2022-10-24T03:48:12;9.98;;;2.05;;
48006;SDS011;33771;48.180;11.400;2022-10-24T03:50:38;10.63;;;2.20;;
48006;SDS011;33771;48.180;11.400;2022-10-24T03:53:03;8.23;;;1.90;;
48006;SDS011;33771;48.180;11.400;2022-10-24T03:55:29;8.05;;;2.28;;
48006;SDS011;33771;48.180;11.400;2022-10-24T03:57:55;8.32;;;2.20;;
48006;SDS011;33771;48.180;11.400;2022-10-24T04:00:21;8.15;;;2.08;;
48006;SDS011;33771;48.180;11.400;2022-10-24T04:02:47;10.07;;;2.20;;
48006;SDS011;33771;48.180;11.400;2022-10-24T04:05:15;6.18;;;2.03;;
48006;SDS011;33771;48.180;11.400;2022-10-24T04:07:41;7.78;;;2.10;;
48006;SDS011;33771;48.180;11.400;2022-10-24T04:10:06;9.80;;;2.38;;
48006;SDS011;33771;48.180;11.400;2022-10-24T04:12:32;7.88;;;2.60;;
48006;SDS011;33771;48.180;11.400;2022-10-24T04:14:58;8.63;;;2.00;;
48006;SDS011;33771;48.180;11.400;2022-10-24T04:17:26;9.63;;;2.25;;
48006;SDS011;33771;48.180;11.400;2022-10-24T04:19:53;8.32;;;2.70;;
48006;SDS011;33771;48.180;11.400;2022-10-24T04:22:18;9.18;;;2.90;;
48006;SDS011;33771;48.180;11.400;2022-10-24T04:24:44;5.65;;;2.20;;
48006;SDS011;33771;48.180;11.400;2022-10-24T04:27:10;10.43;;;2.35;;
48006;SDS011;33771;48.180;11.400;2022-10-24T04:29:35;8.00;;;2.10;;
48006;SDS011;33771;48.180;11.400;2022-10-24T04:32:01;8.60;;;2.90;;
48006;SDS011;33771;48.180;11.400;2022-10-24T04:34:26;11.63;;;2.80;;
48006;SDS011;33771;48.180;11.400;2022-10-24T04:36:52;8.23;;;2.50;;
48006;SDS011;33771;48.180;11.400;2022-10-24T04:39:18;9.07;;;2.30;;
48006;SDS011;33771;48.180;11.400;2022-10-24T04:41:44;8.88;;;2.47;;
48006;SDS011;33771;48.180;11.400;2022-10-24T04:44:10;13.98;;;4.50;;
48006;SDS011;33771;48.180;11.400;2022-10-24T04:46:35;13.13;;;3.85;;
48006;SDS011;33771;48.180;11.400;2022-10-24T04:49:01;7.53;;;2.67;;
48006;SDS011;33771;48.180;11.400;2022-10-24T04:51:27;9.23;;;2.75;;
48006;SDS011;33771;48.180;11.400;2022-10-24T04:53:53;12.77;;;3.35;;
48006;SDS011;33771;48.180;11.400;2022-10-24T04:56:18;11.57;;;4.10;;
48006;SDS011;33771;48.180;11.400;2022-10-24T04:58:44;10.48;;;3.40;;
48006;SDS011;33771;48.180;11.400;2022-10-24T05:01:10;12.68;;;2.67;;
48006;SDS011;33771;48.180;11.400;2022-10-24T05:03:35;10.63;;;3.08;;
48006;SDS011;33771;48.180;11.400;2022-10-24T05:06:01;10.75;;;2.78;;
48006;SDS011;33771;48.180;11.400;2022-10-24T05:08:27;10.57;;;2.67;;
48006;SDS011;33771;48.180;11.400;2022-10-24T05:10:52;10.25;;;3.83;;
48006;SDS011;33771;48.180;11.400;2022-10-24T05:13:18;7.22;;;2.38;;
48006;SDS011;33771;48.180;11.400;2022-10-24T05:15:43;8.80;;;3.10;;
48006;SDS011;33771;48.180;11.400;2022-10-24T05:18:09;17.33;;;4.15;;
48006;SDS011;33771;48.180;11.400;2022-10-24T05:20:35;13.82;;;3.10;;
48006;SDS011;33771;48.180;11.400;2022-10-24T05:23:00;11.63;;;3.30;;
48006;SDS011;33771;48.180;11.400;2022-10-24T05:25:26;11.38;;;2.90;;
48006;SDS011;33771;48.180;11.400;2022-10-24T05:27:51;13.60;;;3.72;;
48006;SDS011;33771;48.180;11.400;2022-10-24T05:30:17;12.70;;;3.15;;
48006;SDS011;33771;48.180;11.400;2022-10-24T05:32:43;13.30;;;4.00;;
48006;SDS011;33771;48.180;11.400;2022-10-24T05:35:10;13.20;;;3.70;;
48006;SDS011;33771;48.180;11.400;2022-10-24T05:37:36;13.30;;;2.92;;
48006;SDS011;33771;48.180;11.400;2022-10-24T05:40:02;10.82;;;3.00;;
48006;SDS011;33771;48.180;11.400;2022-10-24T05:42:30;11.23;;;3.53;;
48006;SDS011;33771;48.180;11.400;2022-10-24T05:44:56;10.88;;;3.42;;
48006;SDS011;33771;48.180;11.400;2022-10-24T05:47:24;11.95;;;3.05;;
48006;SDS011;33771;48.180;11.400;2022-10-24T05:49:49;10.77;;;3.40;;
48006;SDS011;33771;48.180;11.400;2022-10-24T05:52:15;16.02;;;3.53;;
48006;SDS011;33771;48.180;11.400;2022-10-24T05:54:40;11.90;;;3.25;;
48006;SDS011;33771;48.180;11.400;2022-10-24T05:57:06;10.50;;;2.92;;
48006;SDS011;33771;48.180;11.400;2022-10-24T05:59:31;10.18;;;3.00;;
48006;SDS011;33771;48.180;11.400;2022-10-24T06:01:57;8.60;;;2.75;;
48006;SDS011;33771;48.180;11.400;2022-10-24T06:04:22;11.05;;;3.30;;
48006;SDS011;33771;48.180;11.400;2022-10-24T06:06:48;13.70;;;3.40;;
48006;SDS011;33771;48.180;11.400;2022-10-24T06:09:13;13.27;;;3.45;;
48006;SDS011;33771;48.180;11.400;2022-10-24T06:11:39;12.98;;;3.53;;
48006;SDS011;33771;48.180;11.400;2022-10-24T06:14:06;9.05;;;2.78;;
48006;SDS011;33771;48.180;11.400;2022-10-24T06:16:32;9.10;;;3.00;;
48006;SDS011;33771;48.180;11.400;2022-10-24T06:18:58;10.05;;;3.20;;
48006;SDS011;33771;48.180;11.400;2022-10-24T06:21:24;10.82;;;3.05;;
48006;SDS011;33771;48.180;11.400;2022-10-24T06:23:53;9.73;;;2.28;;
48006;SDS011;33771;48.180;11.400;2022-10-24T06:26:19;11.65;;;3.20;;
48006;SDS011;33771;48.180;11.400;2022-10-24T06:28:45;10.93;;;2.75;;
48006;SDS011;33771;48.180;11.400;2022-10-24T06:31:10;12.75;;;2.75;;
48006;SDS011;33771;48.180;11.400;2022-10-24T06:33:37;14.10;;;3.03;;
48006;SDS011;33771;48.180;11.400;2022-10-24T06:36:03;8.57;;;2.97;;
48006;SDS011;33771;48.180;11.400;2022-10-24T06:38:31;9.13;;;2.75;;
48006;SDS011;33771;48.180;11.400;2022-10-24T06:40:57;7.65;;;2.95;;
48006;SDS011;33771;48.180;11.400;2022-10-24T06:43:23;9.32;;;2.75;;
48006;SDS011;33771;48.180;11.400;2022-10-24T06:45:49;8.98;;;2.70;;
48006;SDS011;33771;48.180;11.400;2022-10-24T06:48:15;10.45;;;2.95;;
48006;SDS011;33771;48.180;11.400;2022-10-24T06:50:40;9.13;;;2.80;;
48006;SDS011;33771;48.180;11.400;2022-10-24T06:53:07;11.32;;;2.83;;
48006;SDS011;33771;48.180;11.400;2022-10-24T06:55:34;8.30;;;2.95;;
48006;SDS011;33771;48.180;11.400;2022-10-24T06:58:02;8.95;;;2.50;;
48006;SDS011;33771;48.180;11.400;2022-10-24T07:00:30;8.23;;;2.45;;
48006;SDS011;33771;48.180;11.400;2022-10-24T07:02:59;9.70;;;2.70;;
48006;SDS011;33771;48.180;11.400;2022-10-24T07:05:25;10.25;;;2.80;;
48006;SDS011;33771;48.180;11.400;2022-10-24T07:07:50;9.80;;;3.35;;
48006;SDS011;33771;48.180;11.400;2022-10-24T07:10:16;7.70;;;2.72;;
48006;SDS011;33771;48.180;11.400;2022-10-24T07:12:41;7.03;;;2.42;;
48006;SDS011;33771;48.180;11.400;2022-10-24T07:15:07;12.50;;;3.03;;
48006;SDS011;33771;48.180;11.400;2022-10-24T07:17:40;13.80;;;2.78;;
48006;SDS011;33771;48.180;11.400;2022-10-24T07:20:06;8.88;;;2.58;;
48006;SDS011;33771;48.180;11.400;2022-10-24T07:22:32;10.45;;;2.92;;
48006;SDS011;33771;48.180;11.400;2022-10-24T07:24:59;9.95;;;2.67;;
48006;SDS011;33771;48.180;11.400;2022-10-24T07:27:24;7.45;;;2.58;;
48006;SDS011;33771;48.180;11.400;2022-10-24T07:29:50;8.23;;;2.45;;
48006;SDS011;33771;48.180;11.400;2022-10-24T07:32:17;11.20;;;2.42;;
48006;SDS011;33771;48.180;11.400;2022-10-24T07:34:43;9.43;;;2.95;;
48006;SDS011;33771;48.180;11.400;2022-10-24T07:37:11;14.18;;;2.70;;
48006;SDS011;33771;48.180;11.400;2022-10-24T07:39:37;10.13;;;2.60;;
48006;SDS011;33771;48.180;11.400;2022-10-24T07:42:03;9.13;;;2.58;;
48006;SDS011;33771;48.180;11.400;2022-10-24T07:44:28;7.53;;;2.53;;
48006;SDS011;33771;48.180;11.400;2022-10-24T07:46:54;11.13;;;2.85;;
48006;SDS011;33771;48.180;11.400;2022-10-24T07:49:22;9.88;;;2.70;;
48006;SDS011;33771;48.180;11.400;2022-10-24T07:51:48;8.40;;;2.30;;
48006;SDS011;33771;48.180;11.400;2022-10-24T07:54:13;8.30;;;2.67;;
48006;SDS011;33771;48.180;11.400;2022-10-24T07:56:39;9.00;;;2.92;;
48006;SDS011;33771;48.180;11.400;2022-10-24T07:59:05;10.25;;;2.97;;
48006;SDS011;33771;48.180;11.400;2022-10-24T08:01:30;8.30;;;2.65;;
48006;SDS011;33771;48.180;11.400;2022-10-24T08:03:56;8.80;;;2.92;;
48006;SDS011;33771;48.180;11.400;2022-10-24T08:06:23;8.40;;;2.67;;
48006;SDS011;33771;48.180;11.400;2022-10-24T08:08:53;9.40;;;2.38;;
48006;SDS011;33771;48.180;11.400;2022-10-24T08:11:23;9.10;;;2.90;;
48006;SDS011;33771;48.180;11.400;2022-10-24T08:13:51;11.05;;;3.25;;
48006;SDS011;33771;48.180;11.400;2022-10-24T08:16:19;9.93;;;2.55;;
48006;SDS011;33771;48.180;11.400;2022-10-24T08:18:46;12.55;;;2.60;;
48006;SDS011;33771;48.180;11.400;2022-10-24T08:21:14;8.00;;;2.42;;
48006;SDS011;33771;48.180;11.400;2022-10-24T08:23:41;9.02;;;3.25;;
48006;SDS011;33771;48.180;11.400;2022-10-24T08:26:11;11.80;;;2.85;;
48006;SDS011;33771;48.180;11.400;2022-10-24T08:28:39;7.57;;;3.00;;
48006;SDS011;33771;48.180;11.400;2022-10-24T08:31:06;8.93;;;2.67;;
48006;SDS011;33771;48.180;11.400;2022-10-24T08:33:35;8.25;;;2.83;;
48006;SDS011;33771;48.180;11.400;2022-10-24T08:36:02;9.88;;;2.58;;
48006;SDS011;33771;48.180;11.400;2022-10-24T08:38:32;12.07;;;2.78;;
48006;SDS011;33771;48.180;11.400;2022-10-24T08:41:00;7.57;;;2.55;;
48006;SDS011;33771;48.180;11.400;2022-10-24T08:43:27;7.35;;;2.40;;
48006;SDS011;33771;48.180;11.400;2022-10-24T08:46:00;7.90;;;2.47;;
48006;SDS011;33771;48.180;11.400;2022-10-24T08:48:48;13.32;;;2.42;;
48006;SDS011;33771;48.180;11.400;2022-10-24T08:51:29;9.60;;;2.33;;
48006;SDS011;33771;48.180;11.400;2022-10-24T08:54:04;10.27;;;2.42;;
48006;SDS011;33771;48.180;11.400;2022-10-24T08:56:35;10.23;;;2.00;;
48006;SDS011;33771;48.180;11.400;2022-10-24T08:59:04;9.07;;;2.70;;
48006;SDS011;33771;48.180;11.400;2022-10-24T09:04:06;10.98;;;3.15;;
48006;SDS011;33771;48.180;11.400;2022-10-24T09:06:35;8.75;;;3.85;;
48006;SDS011;33771;48.180;11.400;2022-10-24T09:09:02;10.23;;;4.05;;
48006;SDS011;33771;48.180;11.400;2022-10-24T09:14:25;9.57;;;2.70;;
48006;SDS011;33771;48.180;11.400;2022-10-24T09:17:16;8.60;;;2.67;;
48006;SDS011;33771;48.180;11.400;2022-10-24T09:19:58;12.00;;;2.65;;
48006;SDS011;33771;48.180;11.400;2022-10-24T09:22:32;8.02;;;2.33;;
48006;SDS011;33771;48.180;11.400;2022-10-24T09:25:00;8.18;;;2.28;;
48006;SDS011;33771;48.180;11.400;2022-10-24T09:27:33;8.63;;;2.50;;
48006;SDS011;33771;48.180;11.400;2022-10-24T09:30:02;9.00;;;2.25;;
48006;SDS011;33771;48.180;11.400;2022-10-24T09:32:29;13.73;;;2.63;;
48006;SDS011;33771;48.180;11.400;2022-10-24T09:34:58;13.65;;;3.13;;
48006;SDS011;33771;48.180;11.400;2022-10-24T09:37:52;12.00;;;2.63;;
48006;SDS011;33771;48.180;11.400;2022-10-24T09:40:33;16.92;;;2.97;;
48006;SDS011;33771;48.180;11.400;2022-10-24T09:43:18;14.88;;;2.75;;
48006;SDS011;33771;48.180;11.400;2022-10-24T09:46:15;9.65;;;2.70;;
48006;SDS011;33771;48.180;11.400;2022-10-24T09:48:53;9.43;;;2.50;;
48006;SDS011;33771;48.180;11.400;2022-10-24T09:51:59;9.00;;;2.67;;
48006;SDS011;33771;48.180;11.400;2022-10-24T09:55:29;7.65;;;2.45;;
48006;SDS011;33771;48.180;11.400;2022-10-24T09:58:01;12.68;;;3.30;;
48006;SDS011;33771;48.180;11.400;2022-10-24T10:00:31;9.88;;;2.20;;
48006;SDS011;33771;48.180;11.400;2022-10-24T10:03:20;7.60;;;2.40;;
48006;SDS011;33771;48.180;11.400;2022-10-24T10:05:50;7.20;;;2.50;;
48006;SDS011;33771;48.180;11.400;2022-10-24T10:11:18;9.90;;;2.97;;
48006;SDS011;33771;48.180;11.400;2022-10-24T10:14:15;9.70;;;3.10;;
48006;SDS011;33771;48.180;11.400;2022-10-24T10:16:49;11.60;;;3.17;;
48006;SDS011;33771;48.180;11.400;2022-10-24T10:19:23;8.23;;;2.42;;
48006;SDS011;33771;48.180;11.400;2022-10-24T10:30:07;11.85;;;2.92;;
48006;SDS011;33771;48.180;11.400;2022-10-24T10:40:58;7.45;;;2.40;;
48006;SDS011;33771;48.180;11.400;2022-10-24T10:46:19;9.45;;;2.63;;
48006;SDS011;33771;48.180;11.400;2022-10-24T10:51:52;7.65;;;2.65;;
48006;SDS011;33771;48.180;11.400;2022-10-24T10:57:20;8.77;;;3.25;;
48006;SDS011;33771;48.180;11.400;2022-10-24T11:00:11;8.63;;;3.10;;
48006;SDS011;33771;48.180;11.400;2022-10-24T11:08:08;6.40;;;2.70;;
48006;SDS011;33771;48.180;11.400;2022-10-24T11:11:03;12.70;;;3.15;;
48006;SDS011;33771;48.180;11.400;2022-10-24T11:16:25;9.13;;;2.83;;
48006;SDS011;33771;48.180;11.400;2022-10-24T11:18:54;12.00;;;2.83;;
48006;SDS011;33771;48.180;11.400;2022-10-24T11:21:24;10.82;;;2.83;;
48006;SDS011;33771;48.180;11.400;2022-10-24T11:26:45;8.45;;;2.67;;
48006;SDS011;33771;48.180;11.400;2022-10-24T11:29:34;9.43;;;2.60;;
48006;SDS011;33771;48.180;11.400;2022-10-24T11:34:49;5.20;;;2.00;;
48006;SDS011;33771;48.180;11.400;2022-10-24T11:37:37;15.02;;;2.72;;
48006;SDS011;33771;48.180;11.400;2022-10-24T11:48:35;8.10;;;2.92;;
48006;SDS011;33771;48.180;11.400;2022-10-24T11:51:23;13.77;;;2.60;;
48006;SDS011;33771;48.180;11.400;2022-10-24T11:53:58;5.68;;;2.70;;
48006;SDS011;33771;48.180;11.400;2022-10-24T11:56:36;7.05;;;2.60;;
48006;SDS011;33771;48.180;11.400;2022-10-24T11:59:16;10.23;;;2.53;;
48006;SDS011;33771;48.180;11.400;2022-10-24T12:12:20;15.10;;;2.25;;
48006;SDS011;33771;48.180;11.400;2022-10-24T12:15:01;10.40;;;1.90;;
48006;SDS011;33771;48.180;11.400;2022-10-24T12:18:00;8.75;;;2.67;;
48006;SDS011;33771;48.180;11.400;2022-10-24T12:20:32;7.63;;;1.80;;
48006;SDS011;33771;48.180;11.400;2022-10-24T12:22:58;6.50;;;2.45;;
48006;SDS011;33771;48.180;11.400;2022-10-24T12:25:35;8.65;;;2.60;;
48006;SDS011;33771;48.180;11.400;2022-10-24T12:28:21;5.57;;;1.83;;
48006;SDS011;33771;48.180;11.400;2022-10-24T12:33:34;4.97;;;2.08;;
48006;SDS011;33771;48.180;11.400;2022-10-24T12:36:00;4.55;;;1.88;;
48006;SDS011;33771;48.180;11.400;2022-10-24T12:41:03;7.10;;;2.08;;
48006;SDS011;33771;48.180;11.400;2022-10-24T12:43:47;6.07;;;2.13;;
48006;SDS011;33771;48.180;11.400;2022-10-24T12:48:40;9.00;;;2.60;;
48006;SDS011;33771;48.180;11.400;2022-10-24T12:56:35;5.78;;;2.58;;
48006;SDS011;33771;48.180;11.400;2022-10-24T12:59:30;6.32;;;1.98;;
48006;SDS011;33771;48.180;11.400;2022-10-24T13:12:31;5.60;;;1.90;;
48006;SDS011;33771;48.180;11.400;2022-10-24T13:17:56;8.25;;;2.03;;
48006;SDS011;33771;48.180;11.400;2022-10-24T13:20:47;5.50;;;1.75;;
48006;SDS011;33771;48.180;11.400;2022-10-24T13:23:20;4.22;;;1.88;;
48006;SDS011;33771;48.180;11.400;2022-10-24T13:25:50;6.75;;;2.40;;
48006;SDS011;33771;48.180;11.400;2022-10-24T13:35:53;6.95;;;2.20;;
48006;SDS011;33771;48.180;11.400;2022-10-24T13:38:20;6.65;;;2.20;;
48006;SDS011;33771;48.180;11.400;2022-10-24T13:40:49;13.82;;;3.38;;
48006;SDS011;33771;48.180;11.400;2022-10-24T13:43:16;7.28;;;2.10;;
48006;SDS011;33771;48.180;11.400;2022-10-24T13:45:52;5.05;;;2.30;;
48006;SDS011;33771;48.180;11.400;2022-10-24T13:48:26;5.10;;;2.15;;
48006;SDS011;33771;48.180;11.400;2022-10-24T13:51:13;7.13;;;1.85;;
48006;SDS011;33771;48.180;11.400;2022-10-24T13:56:42;4.38;;;2.00;;
48006;SDS011;33771;48.180;11.400;2022-10-24T13:59:30;6.03;;;1.98;;
48006;SDS011;33771;48.180;11.400;2022-10-24T14:01:59;6.28;;;1.98;;
48006;SDS011;33771;48.180;11.400;2022-10-24T14:04:27;7.60;;;1.80;;
48006;SDS011;33771;48.180;11.400;2022-10-24T14:06:59;5.65;;;1.65;;
48006;SDS011;33771;48.180;11.400;2022-10-24T14:09:39;5.28;;;1.60;;
48006;SDS011;33771;48.180;11.400;2022-10-24T14:12:07;4.15;;;1.85;;
48006;SDS011;33771;48.180;11.400;2022-10-24T14:14:46;4.07;;;1.70;;
48006;SDS011;33771;48.180;11.400;2022-10-24T14:19:54;5.10;;;1.83;;
48006;SDS011;33771;48.180;11.400;2022-10-24T14:22:24;6.88;;;2.08;;
48006;SDS011;33771;48.180;11.400;2022-10-24T14:24:52;6.32;;;2.05;;
48006;SDS011;33771;48.180;11.400;2022-10-24T14:27:18;3.25;;;1.48;;
48006;SDS011;33771;48.180;11.400;2022-10-24T14:29:52;5.80;;;1.77;;
48006;SDS011;33771;48.180;11.400;2022-10-24T14:32:20;4.68;;;2.00;;
48006;SDS011;33771;48.180;11.400;2022-10-24T14:34:46;5.10;;;1.75;;
48006;SDS011;33771;48.180;11.400;2022-10-24T14:37:16;7.82;;;2.45;;
48006;SDS011;33771;48.180;11.400;2022-10-24T14:39:52;5.45;;;2.10;;
48006;SDS011;33771;48.180;11.400;2022-10-24T14:42:18;7.78;;;2.10;;
48006;SDS011;33771;48.180;11.400;2022-10-24T14:44:44;7.75;;;2.05;;
48006;SDS011;33771;48.180;11.400;2022-10-24T14:47:19;3.38;;;2.03;;
48006;SDS011;33771;48.180;11.400;2022-10-24T14:49:45;6.70;;;2.08;;
48006;SDS011;33771;48.180;11.400;2022-10-24T14:54:37;8.10;;;1.80;;
48006;SDS011;33771;48.180;11.400;2022-10-24T14:57:05;5.25;;;2.30;;
48006;SDS011;33771;48.180;11.400;2022-10-24T14:59:42;6.03;;;3.20;;
48006;SDS011;33771;48.180;11.400;2022-10-24T15:02:29;4.10;;;2.10;;
48006;SDS011;33771;48.180;11.400;2022-10-24T15:07:46;7.22;;;2.20;;
48006;SDS011;33771;48.180;11.400;2022-10-24T15:10:31;4.90;;;2.30;;
48006;SDS011;33771;48.180;11.400;2022-10-24T15:13:03;6.65;;;1.88;;
48006;SDS011;33771;48.180;11.400;2022-10-24T15:18:12;8.35;;;2.53;;
48006;SDS011;33771;48.180;11.400;2022-10-24T15:20:44;4.45;;;1.90;;
48006;SDS011;33771;48.180;11.400;2022-10-24T15:25:57;4.32;;;1.83;;
48006;SDS011;33771;48.180;11.400;2022-10-24T15:31:19;5.15;;;1.40;;
48006;SDS011;33771;48.180;11.400;2022-10-24T15:33:47;5.10;;;1.67;;
48006;SDS011;33771;48.180;11.400;2022-10-24T15:36:34;6.93;;;2.08;;
48006;SDS011;33771;48.180;11.400;2022-10-24T15:39:01;2.40;;;1.35;;
48006;SDS011;33771;48.180;11.400;2022-10-24T15:41:29;6.75;;;1.73;;
48006;SDS011;33771;48.180;11.400;2022-10-24T15:43:55;3.63;;;1.80;;
48006;SDS011;33771;48.180;11.400;2022-10-24T15:46:22;3.28;;;1.50;;
48006;SDS011;33771;48.180;11.400;2022-10-24T15:48:48;5.90;;;1.70;;
48006;SDS011;33771;48.180;11.400;2022-10-24T15:51:15;3.35;;;1.40;;
48006;SDS011;33771;48.180;11.400;2022-10-24T15:53:44;4.38;;;1.55;;
48006;SDS011;33771;48.180;11.400;2022-10-24T15:56:11;4.22;;;1.50;;
48006;SDS011;33771;48.180;11.400;2022-10-24T15:58:40;2.35;;;1.30;;
48006;SDS011;33771;48.180;11.400;2022-10-24T16:01:19;2.22;;;1.30;;
48006;SDS011;33771;48.180;11.400;2022-10-24T16:03:48;3.67;;;1.30;;
48006;SDS011;33771;48.180;11.400;2022-10-24T16:06:14;2.65;;;1.20;;
48006;SDS011;33771;48.180;11.400;2022-10-24T16:08:40;3.50;;;1.30;;
48006;SDS011;33771;48.180;11.400;2022-10-24T16:11:07;2.33;;;1.15;;
48006;SDS011;33771;48.180;11.400;2022-10-24T16:13:35;4.18;;;1.20;;
48006;SDS011;33771;48.180;11.400;2022-10-24T16:16:00;3.25;;;1.00;;
48006;SDS011;33771;48.180;11.400;2022-10-24T16:18:26;3.05;;;1.27;;
48006;SDS011;33771;48.180;11.400;2022-10-24T16:20:52;3.53;;;1.02;;
48006;SDS011;33771;48.180;11.400;2022-10-24T16:23:17;2.10;;;0.90;;
48006;SDS011;33771;48.180;11.400;2022-10-24T16:25:43;4.20;;;1.45;;
48006;SDS011;33771;48.180;11.400;2022-10-24T16:28:09;1.40;;;0.98;;
48006;SDS011;33771;48.180;11.400;2022-10-24T16:30:35;2.97;;;1.00;;
48006;SDS011;33771;48.180;11.400;2022-10-24T16:33:03;2.05;;;1.02;;
48006;SDS011;33771;48.180;11.400;2022-10-24T16:35:31;1.77;;;1.20;;
48006;SDS011;33771;48.180;11.400;2022-10-24T16:37:58;3.13;;;1.17;;
48006;SDS011;33771;48.180;11.400;2022-10-24T16:40:25;3.65;;;1.10;;
48006;SDS011;33771;48.180;11.400;2022-10-24T16:42:52;4.00;;;1.40;;
48006;SDS011;33771;48.180;11.400;2022-10-24T16:45:19;2.03;;;0.98;;
48006;SDS011;33771;48.180;11.400;2022-10-24T16:47:45;3.55;;;1.38;;
48006;SDS011;33771;48.180;11.400;2022-10-24T16:50:22;5.93;;;1.10;;
48006;SDS011;33771;48.180;11.400;2022-10-24T16:52:55;1.65;;;1.00;;
48006;SDS011;33771;48.180;11.400;2022-10-24T16:55:24;5.50;;;1.42;;
48006;SDS011;33771;48.180;11.400;2022-10-24T16:57:50;3.13;;;1.10;;
48006;SDS011;33771;48.180;11.400;2022-10-24T17:00:16;4.80;;;1.40;;
48006;SDS011;33771;48.180;11.400;2022-10-24T17:02:44;2.60;;;1.42;;
48006;SDS011;33771;48.180;11.400;2022-10-24T17:05:13;3.47;;;1.23;;